createdAt,value
2018-12-10T00:03:31.237Z,97624.00
2018-12-10T00:07:33.625Z,97630.00
2018-12-10T00:11:35.971Z,97643.00
2018-12-10T00:15:38.386Z,97648.00
2018-12-10T00:19:40.807Z,97632.00
2018-12-10T00:23:43.164Z,97632.00
2018-12-10T00:27:45.520Z,97622.00
2018-12-10T00:31:47.850Z,97631.00
2018-12-10T00:35:50.182Z,97631.00
2018-12-10T00:39:52.535Z,97640.00
2018-12-10T00:43:54.851Z,97638.00
2018-12-10T00:47:57.166Z,97648.00
2018-12-10T00:51:59.511Z,97641.00
2018-12-10T00:56:01.907Z,97648.00
2018-12-10T01:00:04.720Z,97656.00
2018-12-10T01:04:07.280Z,97670.00
2018-12-10T01:08:09.821Z,97667.00
2018-12-10T01:12:12.165Z,97669.00
2018-12-10T01:16:14.463Z,97700.00
2018-12-10T01:20:16.827Z,97714.00
2018-12-10T01:24:19.187Z,97717.00
2018-12-10T01:28:21.527Z,97742.00
2018-12-10T01:32:23.877Z,97725.00
2018-12-10T01:36:26.171Z,97724.00
2018-12-10T01:40:28.547Z,97736.00
2018-12-10T01:44:30.960Z,97747.00
2018-12-10T01:48:33.316Z,97761.00
2018-12-10T01:52:35.680Z,97760.00
2018-12-10T01:56:38.056Z,97770.00
2018-12-10T02:00:40.430Z,97779.00
2018-12-10T02:04:42.800Z,97783.00
2018-12-10T02:08:45.246Z,97773.00
2018-12-10T02:12:47.648Z,97769.00
2018-12-10T02:16:50.047Z,97771.00
2018-12-10T02:20:52.364Z,97768.00
2018-12-10T02:24:54.730Z,97777.00
2018-12-10T02:29:02.549Z,97780.00
2018-12-10T02:33:04.934Z,97787.00
2018-12-10T02:37:07.279Z,97795.00
2018-12-10T02:41:09.646Z,97796.00
2018-12-10T02:45:12.035Z,97806.00
2018-12-10T02:49:14.572Z,97825.00
2018-12-10T02:53:17.090Z,97816.00
2018-12-10T02:57:19.513Z,97823.00
2018-12-10T03:01:21.887Z,97822.00
2018-12-10T03:05:24.237Z,97838.00
2018-12-10T03:09:26.676Z,97823.00
2018-12-10T03:13:29.018Z,97826.00
2018-12-10T03:17:31.325Z,97832.00
2018-12-10T03:21:33.671Z,97839.00
2018-12-10T03:25:36.002Z,97844.00
2018-12-10T03:29:38.354Z,97845.00
2018-12-10T03:33:40.714Z,97836.00
2018-12-10T03:37:43.057Z,97844.00
2018-12-10T03:41:45.451Z,97845.00
2018-12-10T03:45:47.823Z,97843.00
2018-12-10T03:49:50.161Z,97846.00
2018-12-10T03:53:52.517Z,97850.00
2018-12-10T03:57:54.861Z,97841.00
2018-12-10T04:01:57.157Z,97856.00
2018-12-10T04:05:59.544Z,97858.00
2018-12-10T04:10:01.951Z,97868.00
2018-12-10T04:14:04.280Z,97870.00
2018-12-10T04:18:06.606Z,97884.00
2018-12-10T04:22:08.955Z,97876.00
2018-12-10T04:26:11.317Z,97880.00
2018-12-10T04:30:13.651Z,97886.00
2018-12-10T04:34:16.018Z,97894.00
2018-12-10T04:38:18.316Z,97899.00
2018-12-10T04:42:20.657Z,97884.00
2018-12-10T04:46:23.109Z,97898.00
2018-12-10T04:50:25.450Z,97908.00
2018-12-10T04:54:27.739Z,97906.00
2018-12-10T04:58:30.026Z,97916.00
2018-12-10T05:02:32.369Z,97923.00
2018-12-10T05:06:34.710Z,97923.00
2018-12-10T05:10:37.106Z,97934.00
2018-12-10T05:14:39.460Z,97937.00
2018-12-10T05:18:41.766Z,97932.00
2018-12-10T05:22:44.096Z,97949.00
2018-12-10T05:26:46.575Z,97942.00
2018-12-10T05:30:49.122Z,97954.00
2018-12-10T05:34:51.481Z,97951.00
2018-12-10T05:38:53.786Z,97955.00
2018-12-10T05:42:56.159Z,97959.00
2018-12-10T05:46:58.531Z,97966.00
2018-12-10T05:51:00.999Z,97962.00
2018-12-10T05:55:03.419Z,97967.00
2018-12-10T05:59:05.844Z,97999.00
2018-12-10T06:03:08.226Z,97999.00
2018-12-10T06:07:10.616Z,97995.00
2018-12-10T06:11:13.014Z,97997.00
2018-12-10T06:15:15.358Z,97998.00
2018-12-10T06:19:17.706Z,97992.00
2018-12-10T06:23:20.105Z,97994.00
2018-12-10T06:27:22.551Z,98003.00
2018-12-10T06:31:24.909Z,98000.00
2018-12-10T06:35:27.555Z,98007.00
2018-12-10T06:39:29.931Z,98007.00
2018-12-10T06:43:32.320Z,98009.00
2018-12-10T06:47:34.720Z,98002.00
2018-12-10T06:51:37.057Z,98022.00
2018-12-10T06:55:39.488Z,98018.00
2018-12-10T06:59:42.140Z,98015.00
2018-12-10T07:03:49.024Z,98041.00
2018-12-10T07:07:51.415Z,98038.00
2018-12-10T07:11:53.804Z,98047.00
2018-12-10T07:15:56.193Z,98036.00
2018-12-10T07:19:58.655Z,98038.00
2018-12-10T07:24:01.054Z,98048.00
2018-12-10T07:28:03.429Z,98041.00
2018-12-10T07:32:05.629Z,98039.00
2018-12-10T07:36:07.997Z,98050.00
2018-12-10T07:40:10.340Z,98059.00
2018-12-10T07:44:12.717Z,98070.00
2018-12-10T07:48:15.085Z,98069.00
2018-12-10T07:52:17.495Z,98081.00
2018-12-10T07:56:19.848Z,98081.00
2018-12-10T08:00:22.288Z,98082.00
2018-12-10T08:04:24.629Z,98094.00
2018-12-10T08:08:27.337Z,98099.00
2018-12-10T08:12:29.779Z,98115.00
2018-12-10T08:16:32.379Z,98114.00
2018-12-10T08:20:34.722Z,98127.00
2018-12-10T08:24:37.094Z,98124.00
2018-12-10T08:28:39.514Z,98131.00
2018-12-10T08:32:41.914Z,98121.00
2018-12-10T08:36:44.319Z,98119.00
2018-12-10T08:40:46.907Z,98131.00
2018-12-10T08:44:49.553Z,98144.00
2018-12-10T08:48:51.966Z,98137.00
2018-12-10T08:52:54.334Z,98149.00
2018-12-10T08:56:56.794Z,98147.00
2018-12-10T09:00:59.257Z,98165.00
2018-12-10T09:05:01.713Z,98158.00
2018-12-10T09:09:04.982Z,98171.00
2018-12-10T09:13:07.603Z,98171.00
2018-12-10T09:17:10.136Z,98184.00
2018-12-10T09:21:13.593Z,98176.00
2018-12-10T09:25:16.337Z,98187.00
2018-12-10T09:29:20.631Z,98195.00
2018-12-10T09:33:23.364Z,98198.00
2018-12-10T09:37:26.693Z,98195.00
2018-12-10T09:41:29.455Z,98195.00
2018-12-10T09:45:32.432Z,98193.00
2018-12-10T09:49:35.216Z,98187.00
2018-12-10T09:53:38.386Z,98200.00
2018-12-10T09:57:40.861Z,98201.00
2018-12-10T10:01:43.311Z,98207.00
2018-12-10T10:05:45.728Z,98210.00
2018-12-10T10:09:51.051Z,98199.00
2018-12-10T10:13:53.456Z,98207.00
2018-12-10T10:17:55.769Z,98212.00
2018-12-10T10:21:58.147Z,98210.00
2018-12-10T10:26:00.539Z,98210.00
2018-12-10T10:30:03.047Z,98205.00
2018-12-10T10:34:05.371Z,98211.00
2018-12-10T10:38:07.777Z,98206.00
2018-12-10T10:42:10.161Z,98205.00
2018-12-10T10:46:12.597Z,98200.00
2018-12-10T10:50:14.965Z,98193.00
2018-12-10T10:54:17.282Z,98184.00
2018-12-10T10:58:19.653Z,98179.00
2018-12-10T11:02:27.607Z,98177.00
2018-12-10T11:06:30.090Z,98180.00
2018-12-10T11:10:34.449Z,98177.00
2018-12-10T11:14:36.821Z,98168.00
2018-12-10T11:18:39.311Z,98173.00
2018-12-10T11:22:41.667Z,98179.00
2018-12-10T11:26:44.247Z,98180.00
2018-12-10T11:30:46.695Z,98193.00
2018-12-10T11:34:49.157Z,98194.00
2018-12-10T11:38:51.508Z,98198.00
2018-12-10T11:42:53.887Z,98190.00
2018-12-10T11:46:56.277Z,98198.00
2018-12-10T11:50:58.650Z,98171.00
2018-12-10T11:55:01.011Z,98159.00
2018-12-10T11:59:03.460Z,98176.00
2018-12-10T12:03:05.846Z,98171.00
2018-12-10T12:07:08.216Z,98178.00
2018-12-10T12:11:10.656Z,98173.00
2018-12-10T12:15:13.111Z,98167.00
2018-12-10T12:19:15.560Z,98163.00
2018-12-10T12:23:17.926Z,98168.00
2018-12-10T12:27:20.416Z,98154.00
2018-12-10T12:31:22.773Z,98165.00
2018-12-10T12:35:25.100Z,98155.00
2018-12-10T12:39:28.521Z,98151.00
2018-12-10T12:43:31.210Z,98146.00
2018-12-10T12:47:33.547Z,98147.00
2018-12-10T12:51:35.935Z,98155.00
2018-12-10T12:55:38.391Z,98145.00
2018-12-10T12:59:40.753Z,98152.00
2018-12-10T13:03:43.139Z,98139.00
2018-12-10T13:07:45.576Z,98132.00
2018-12-10T13:11:47.944Z,98148.00
2018-12-10T13:15:50.356Z,98138.00
2018-12-10T13:19:52.725Z,98131.00
2018-12-10T13:23:55.147Z,98125.00
2018-12-10T13:27:57.501Z,98135.00
2018-12-10T13:31:59.930Z,98125.00
2018-12-10T13:36:02.370Z,98111.00
2018-12-10T13:40:04.988Z,98131.00
2018-12-10T13:44:07.445Z,98125.00
2018-12-10T13:48:10.025Z,98117.00
2018-12-10T13:52:12.464Z,98122.00
2018-12-10T13:56:14.885Z,98114.00
2018-12-10T14:00:17.471Z,98105.00
2018-12-10T14:04:25.238Z,98116.00
2018-12-10T14:08:27.921Z,98107.00
2018-12-10T14:12:31.893Z,98102.00
2018-12-10T14:16:34.299Z,98101.00
2018-12-10T14:20:36.763Z,98105.00
2018-12-10T14:24:39.249Z,98095.00
2018-12-10T14:28:42.666Z,98103.00
2018-12-10T14:32:45.053Z,98102.00
2018-12-10T14:36:47.554Z,98099.00
2018-12-10T14:40:50.785Z,98106.00
2018-12-10T14:44:53.237Z,98096.00
2018-12-10T14:48:55.753Z,98094.00
2018-12-10T14:53:00.051Z,98098.00
2018-12-10T14:57:02.519Z,98103.00
2018-12-10T15:01:05.064Z,98083.00
2018-12-10T15:05:09.104Z,98100.00
2018-12-10T15:09:11.489Z,98119.00
2018-12-10T15:13:13.898Z,98129.00
2018-12-10T15:17:16.424Z,98132.00
2018-12-10T15:21:18.855Z,98144.00
2018-12-10T15:25:21.764Z,98141.00
2018-12-10T15:29:24.529Z,98141.00
2018-12-10T15:33:27.020Z,98146.00
2018-12-10T15:37:29.526Z,98150.00
2018-12-10T15:41:32.785Z,98159.00
2018-12-10T15:45:35.771Z,98163.00
2018-12-10T15:49:38.194Z,98154.00
2018-12-10T15:53:40.529Z,98155.00
2018-12-10T15:57:43.880Z,98153.00
2018-12-10T16:01:46.306Z,98168.00
2018-12-10T16:05:48.691Z,98174.00
2018-12-10T16:09:51.178Z,98176.00
2018-12-10T16:13:53.599Z,98165.00
2018-12-10T16:17:55.990Z,98167.00
2018-12-10T16:21:59.009Z,98184.00
2018-12-10T16:26:01.397Z,98180.00
2018-12-10T16:30:04.431Z,98164.00
2018-12-10T16:34:06.839Z,98162.00
2018-12-10T16:38:09.493Z,98150.00
2018-12-10T16:42:11.889Z,98166.00
2018-12-10T16:46:14.296Z,98163.00
2018-12-10T16:50:16.731Z,98181.00
2018-12-10T16:54:19.121Z,98181.00
2018-12-10T16:58:21.520Z,98178.00
2018-12-10T17:02:23.903Z,98189.00
2018-12-10T17:06:26.355Z,98170.00
2018-12-10T17:10:35.304Z,98165.00
2018-12-10T17:14:37.761Z,98182.00
2018-12-10T17:18:40.167Z,98185.00
2018-12-10T17:22:42.613Z,98193.00
2018-12-10T17:26:45.016Z,98185.00
2018-12-10T17:30:47.374Z,98178.00
2018-12-10T17:34:49.768Z,98196.00
2018-12-10T17:38:52.197Z,98197.00
2018-12-10T17:42:54.599Z,98205.00
2018-12-10T17:46:57.078Z,98197.00
2018-12-10T17:50:59.484Z,98211.00
2018-12-10T17:55:01.931Z,98216.00
2018-12-10T17:59:04.472Z,98230.00
2018-12-10T18:03:07.088Z,98224.00
2018-12-10T18:07:09.627Z,98235.00
2018-12-10T18:11:12.033Z,98244.00
2018-12-10T18:15:14.511Z,98231.00
2018-12-10T18:19:16.970Z,98234.00
2018-12-10T18:23:19.523Z,98242.00
2018-12-10T18:27:21.968Z,98247.00
2018-12-10T18:31:24.358Z,98239.00
2018-12-10T18:35:26.813Z,98231.00
2018-12-10T18:39:29.303Z,98226.00
2018-12-10T18:43:31.826Z,98222.00
2018-12-10T18:47:34.294Z,98220.00
2018-12-10T18:51:36.756Z,98218.00
2018-12-10T18:55:39.168Z,98205.00
2018-12-10T18:59:41.844Z,98206.00
2018-12-10T19:03:44.304Z,98210.00
2018-12-10T19:07:46.697Z,98213.00
2018-12-10T19:11:49.078Z,98220.00
2018-12-10T19:15:51.511Z,98211.00
2018-12-10T19:19:53.918Z,98195.00
2018-12-10T19:23:58.130Z,98211.00
2018-12-10T19:28:00.698Z,98214.00
2018-12-10T19:32:03.871Z,98207.00
2018-12-10T19:36:06.475Z,98210.00
2018-12-10T19:40:08.902Z,98211.00
2018-12-10T19:44:11.794Z,98196.00
2018-12-10T19:48:14.362Z,98193.00
2018-12-10T19:52:16.883Z,98201.00
2018-12-10T19:56:19.321Z,98200.00
2018-12-10T20:00:22.294Z,98194.00
2018-12-10T20:04:24.838Z,98205.00
2018-12-10T20:08:27.386Z,98211.00
2018-12-10T20:12:30.349Z,98206.00
2018-12-10T20:16:34.057Z,98211.00
2018-12-10T20:20:36.654Z,98213.00
2018-12-10T20:24:39.093Z,98215.00
2018-12-10T20:28:42.492Z,98213.00
2018-12-10T20:32:49.920Z,98212.00
2018-12-10T20:36:52.452Z,98217.00
2018-12-10T20:40:54.936Z,98216.00
2018-12-10T20:44:57.484Z,98226.00
2018-12-10T20:49:00.057Z,98223.00
2018-12-10T20:53:02.959Z,98223.00
2018-12-10T20:57:05.379Z,98230.00
2018-12-10T21:01:07.732Z,98244.00
2018-12-10T21:05:10.154Z,98245.00
2018-12-10T21:09:12.762Z,98225.00
2018-12-10T21:13:15.173Z,98232.00
2018-12-10T21:17:17.713Z,98226.00
2018-12-10T21:21:20.189Z,98230.00
2018-12-10T21:25:24.277Z,98229.00
2018-12-10T21:29:26.713Z,98226.00
2018-12-10T21:33:29.998Z,98224.00
2018-12-10T21:37:32.440Z,98226.00
2018-12-10T21:41:36.606Z,98218.00
2018-12-10T21:45:40.631Z,98234.00
2018-12-10T21:49:44.741Z,98223.00
2018-12-10T21:53:48.181Z,98230.00
2018-12-10T21:57:51.772Z,98233.00
2018-12-10T22:01:54.738Z,98230.00
2018-12-10T22:05:57.341Z,98227.00
2018-12-10T22:10:00.084Z,98235.00
2018-12-10T22:14:02.757Z,98236.00
2018-12-10T22:18:05.987Z,98237.00
2018-12-10T22:22:08.420Z,98248.00
2018-12-10T22:26:10.873Z,98226.00
2018-12-10T22:30:13.363Z,98220.00
2018-12-10T22:34:15.951Z,98227.00
2018-12-10T22:38:20.320Z,98241.00
2018-12-10T22:42:24.739Z,98252.00
2018-12-10T22:46:27.096Z,98248.00
2018-12-10T22:50:29.487Z,98253.00
2018-12-10T22:54:32.981Z,98257.00
2018-12-10T22:58:35.399Z,98250.00
2018-12-10T23:02:38.092Z,98255.00
2018-12-10T23:06:40.507Z,98253.00
2018-12-10T23:10:42.883Z,98257.00
2018-12-10T23:14:45.238Z,98252.00
2018-12-10T23:18:47.939Z,98255.00
2018-12-10T23:22:50.381Z,98242.00
2018-12-10T23:26:52.826Z,98241.00
2018-12-10T23:30:55.961Z,98235.00
2018-12-10T23:34:58.444Z,98241.00
2018-12-10T23:39:00.801Z,98248.00
2018-12-10T23:43:08.933Z,98245.00
2018-12-10T23:47:11.269Z,98250.00
2018-12-10T23:51:14.172Z,98258.00
2018-12-10T23:55:17.756Z,98263.00
2018-12-10T23:59:20.095Z,98258.00
